sensor_id;sensor_type;location;lat;lon;timestamp;P1;durP1;ratioP1;P2;durP2;ratioP2
12088;SDS011;6107;49.078;8.578;2022-08-19T00:01:39;24.45;;;16.45;;
12088;SDS011;6107;49.078;8.578;2022-08-19T00:04:07;22.63;;;16.52;;
12088;SDS011;6107;49.078;8.578;2022-08-19T00:06:34;23.33;;;15.55;;
12088;SDS011;6107;49.078;8.578;2022-08-19T00:09:02;24.50;;;16.20;;
12088;SDS011;6107;49.078;8.578;2022-08-19T00:11:29;22.58;;;16.45;;
12088;SDS011;6107;49.078;8.578;2022-08-19T00:13:55;24.13;;;16.23;;
12088;SDS011;6107;49.078;8.578;2022-08-19T00:16:21;21.80;;;16.25;;
12088;SDS011;6107;49.078;8.578;2022-08-19T00:18:49;25.55;;;16.95;;
12088;SDS011;6107;49.078;8.578;2022-08-19T00:21:14;24.42;;;16.48;;
12088;SDS011;6107;49.078;8.578;2022-08-19T00:23:40;24.77;;;16.55;;
12088;SDS011;6107;49.078;8.578;2022-08-19T00:26:07;23.73;;;16.80;;
12088;SDS011;6107;49.078;8.578;2022-08-19T00:28:33;21.38;;;16.10;;
12088;SDS011;6107;49.078;8.578;2022-08-19T00:31:00;21.77;;;16.98;;
12088;SDS011;6107;49.078;8.578;2022-08-19T00:33:28;23.35;;;16.58;;
12088;SDS011;6107;49.078;8.578;2022-08-19T00:35:57;24.15;;;17.30;;
12088;SDS011;6107;49.078;8.578;2022-08-19T00:38:29;22.77;;;17.17;;
12088;SDS011;6107;49.078;8.578;2022-08-19T00:40:55;24.75;;;16.92;;
12088;SDS011;6107;49.078;8.578;2022-08-19T00:43:22;21.10;;;16.27;;
12088;SDS011;6107;49.078;8.578;2022-08-19T00:45:51;22.00;;;16.60;;
12088;SDS011;6107;49.078;8.578;2022-08-19T00:48:17;24.73;;;17.40;;
12088;SDS011;6107;49.078;8.578;2022-08-19T00:50:43;22.77;;;17.33;;
12088;SDS011;6107;49.078;8.578;2022-08-19T00:53:10;21.90;;;16.88;;
12088;SDS011;6107;49.078;8.578;2022-08-19T00:55:40;22.67;;;16.73;;
12088;SDS011;6107;49.078;8.578;2022-08-19T00:58:08;22.38;;;17.10;;
12088;SDS011;6107;49.078;8.578;2022-08-19T01:00:37;22.67;;;17.48;;
12088;SDS011;6107;49.078;8.578;2022-08-19T01:03:08;24.23;;;18.27;;
12088;SDS011;6107;49.078;8.578;2022-08-19T01:05:35;22.60;;;16.92;;
12088;SDS011;6107;49.078;8.578;2022-08-19T01:08:03;23.65;;;17.60;;
12088;SDS011;6107;49.078;8.578;2022-08-19T01:10:32;24.02;;;18.17;;
12088;SDS011;6107;49.078;8.578;2022-08-19T01:13:02;27.10;;;18.77;;
12088;SDS011;6107;49.078;8.578;2022-08-19T01:15:33;24.15;;;18.42;;
12088;SDS011;6107;49.078;8.578;2022-08-19T01:18:07;26.85;;;19.08;;
12088;SDS011;6107;49.078;8.578;2022-08-19T01:20:36;27.95;;;19.45;;
12088;SDS011;6107;49.078;8.578;2022-08-19T01:23:02;25.45;;;18.50;;
12088;SDS011;6107;49.078;8.578;2022-08-19T01:25:29;26.92;;;19.02;;
12088;SDS011;6107;49.078;8.578;2022-08-19T01:27:58;24.13;;;17.65;;
12088;SDS011;6107;49.078;8.578;2022-08-19T01:30:25;25.27;;;17.63;;
12088;SDS011;6107;49.078;8.578;2022-08-19T01:32:53;23.98;;;18.08;;
12088;SDS011;6107;49.078;8.578;2022-08-19T01:35:20;24.00;;;17.77;;
12088;SDS011;6107;49.078;8.578;2022-08-19T01:37:52;24.70;;;18.70;;
12088;SDS011;6107;49.078;8.578;2022-08-19T01:40:24;22.40;;;17.08;;
12088;SDS011;6107;49.078;8.578;2022-08-19T01:42:54;24.55;;;17.10;;
12088;SDS011;6107;49.078;8.578;2022-08-19T01:45:20;25.50;;;17.70;;
12088;SDS011;6107;49.078;8.578;2022-08-19T01:47:47;22.58;;;17.70;;
12088;SDS011;6107;49.078;8.578;2022-08-19T01:50:13;27.10;;;19.33;;
12088;SDS011;6107;49.078;8.578;2022-08-19T01:52:40;26.48;;;18.90;;
12088;SDS011;6107;49.078;8.578;2022-08-19T01:55:08;23.30;;;17.25;;
12088;SDS011;6107;49.078;8.578;2022-08-19T01:57:36;24.13;;;17.08;;
12088;SDS011;6107;49.078;8.578;2022-08-19T02:00:06;25.67;;;18.77;;
12088;SDS011;6107;49.078;8.578;2022-08-19T02:02:34;24.95;;;19.13;;
12088;SDS011;6107;49.078;8.578;2022-08-19T02:04:59;24.52;;;18.73;;
12088;SDS011;6107;49.078;8.578;2022-08-19T02:07:25;23.80;;;18.30;;
12088;SDS011;6107;49.078;8.578;2022-08-19T02:09:53;23.08;;;18.10;;
12088;SDS011;6107;49.078;8.578;2022-08-19T02:12:19;28.05;;;20.40;;
12088;SDS011;6107;49.078;8.578;2022-08-19T02:14:45;28.38;;;20.88;;
12088;SDS011;6107;49.078;8.578;2022-08-19T02:17:11;24.55;;;19.25;;
12088;SDS011;6107;49.078;8.578;2022-08-19T02:19:36;24.60;;;19.48;;
12088;SDS011;6107;49.078;8.578;2022-08-19T02:22:02;23.98;;;18.27;;
12088;SDS011;6107;49.078;8.578;2022-08-19T02:24:27;24.58;;;19.10;;
12088;SDS011;6107;49.078;8.578;2022-08-19T02:26:53;25.33;;;18.27;;
12088;SDS011;6107;49.078;8.578;2022-08-19T02:29:19;24.38;;;18.25;;
12088;SDS011;6107;49.078;8.578;2022-08-19T02:31:45;25.20;;;18.38;;
12088;SDS011;6107;49.078;8.578;2022-08-19T02:34:10;25.00;;;18.70;;
12088;SDS011;6107;49.078;8.578;2022-08-19T02:36:36;26.45;;;18.17;;
12088;SDS011;6107;49.078;8.578;2022-08-19T02:39:02;24.17;;;18.63;;
12088;SDS011;6107;49.078;8.578;2022-08-19T02:41:29;24.20;;;18.30;;
12088;SDS011;6107;49.078;8.578;2022-08-19T02:43:57;25.70;;;19.17;;
12088;SDS011;6107;49.078;8.578;2022-08-19T02:46:26;24.60;;;17.85;;
12088;SDS011;6107;49.078;8.578;2022-08-19T02:48:59;29.15;;;18.70;;
12088;SDS011;6107;49.078;8.578;2022-08-19T02:51:28;23.42;;;17.88;;
12088;SDS011;6107;49.078;8.578;2022-08-19T02:53:56;23.88;;;18.25;;
12088;SDS011;6107;49.078;8.578;2022-08-19T02:56:23;24.45;;;18.75;;
12088;SDS011;6107;49.078;8.578;2022-08-19T02:58:49;25.35;;;18.67;;
12088;SDS011;6107;49.078;8.578;2022-08-19T03:01:25;23.85;;;18.23;;
12088;SDS011;6107;49.078;8.578;2022-08-19T03:03:53;24.70;;;18.83;;
12088;SDS011;6107;49.078;8.578;2022-08-19T03:06:20;26.65;;;18.85;;
12088;SDS011;6107;49.078;8.578;2022-08-19T03:08:46;25.67;;;17.88;;
12088;SDS011;6107;49.078;8.578;2022-08-19T03:11:15;24.25;;;18.95;;
12088;SDS011;6107;49.078;8.578;2022-08-19T03:13:46;24.88;;;19.52;;
12088;SDS011;6107;49.078;8.578;2022-08-19T03:16:14;28.35;;;19.35;;
12088;SDS011;6107;49.078;8.578;2022-08-19T03:18:40;26.88;;;19.25;;
12088;SDS011;6107;49.078;8.578;2022-08-19T03:21:05;24.98;;;19.67;;
12088;SDS011;6107;49.078;8.578;2022-08-19T03:23:31;25.90;;;19.02;;
12088;SDS011;6107;49.078;8.578;2022-08-19T03:25:57;25.75;;;19.10;;
12088;SDS011;6107;49.078;8.578;2022-08-19T03:28:23;24.90;;;18.67;;
12088;SDS011;6107;49.078;8.578;2022-08-19T03:30:55;25.67;;;20.23;;
12088;SDS011;6107;49.078;8.578;2022-08-19T03:33:23;28.80;;;20.35;;
12088;SDS011;6107;49.078;8.578;2022-08-19T03:35:59;26.05;;;19.70;;
12088;SDS011;6107;49.078;8.578;2022-08-19T03:38:26;25.23;;;19.23;;
12088;SDS011;6107;49.078;8.578;2022-08-19T03:40:51;24.88;;;18.42;;
12088;SDS011;6107;49.078;8.578;2022-08-19T03:43:17;26.48;;;19.50;;
12088;SDS011;6107;49.078;8.578;2022-08-19T03:45:43;24.85;;;19.52;;
12088;SDS011;6107;49.078;8.578;2022-08-19T03:48:08;24.70;;;18.63;;
12088;SDS011;6107;49.078;8.578;2022-08-19T03:50:38;24.67;;;19.80;;
12088;SDS011;6107;49.078;8.578;2022-08-19T03:53:04;24.73;;;19.35;;
12088;SDS011;6107;49.078;8.578;2022-08-19T03:55:29;25.52;;;19.35;;
12088;SDS011;6107;49.078;8.578;2022-08-19T03:57:55;28.00;;;20.10;;
12088;SDS011;6107;49.078;8.578;2022-08-19T04:00:21;26.83;;;19.95;;
12088;SDS011;6107;49.078;8.578;2022-08-19T04:02:46;26.45;;;19.92;;
12088;SDS011;6107;49.078;8.578;2022-08-19T04:05:12;25.20;;;18.92;;
12088;SDS011;6107;49.078;8.578;2022-08-19T04:07:39;25.80;;;19.15;;
12088;SDS011;6107;49.078;8.578;2022-08-19T04:10:04;26.00;;;19.77;;
12088;SDS011;6107;49.078;8.578;2022-08-19T04:12:30;29.15;;;20.35;;
12088;SDS011;6107;49.078;8.578;2022-08-19T04:14:56;25.45;;;19.77;;
12088;SDS011;6107;49.078;8.578;2022-08-19T04:17:23;28.13;;;20.23;;
12088;SDS011;6107;49.078;8.578;2022-08-19T04:19:49;27.30;;;20.55;;
12088;SDS011;6107;49.078;8.578;2022-08-19T04:22:14;27.38;;;21.20;;
12088;SDS011;6107;49.078;8.578;2022-08-19T04:24:40;23.60;;;19.75;;
12088;SDS011;6107;49.078;8.578;2022-08-19T04:27:06;27.92;;;20.25;;
12088;SDS011;6107;49.078;8.578;2022-08-19T04:29:31;26.40;;;20.40;;
12088;SDS011;6107;49.078;8.578;2022-08-19T04:31:58;26.40;;;20.20;;
12088;SDS011;6107;49.078;8.578;2022-08-19T04:34:25;27.08;;;19.70;;
12088;SDS011;6107;49.078;8.578;2022-08-19T04:36:53;26.08;;;19.92;;
12088;SDS011;6107;49.078;8.578;2022-08-19T04:39:22;23.92;;;18.90;;
12088;SDS011;6107;49.078;8.578;2022-08-19T04:42:09;25.67;;;19.63;;
12088;SDS011;6107;49.078;8.578;2022-08-19T04:44:53;24.90;;;20.13;;
12088;SDS011;6107;49.078;8.578;2022-08-19T04:47:19;25.02;;;19.48;;
12088;SDS011;6107;49.078;8.578;2022-08-19T04:49:44;27.70;;;20.83;;
12088;SDS011;6107;49.078;8.578;2022-08-19T04:52:11;25.35;;;20.27;;
12088;SDS011;6107;49.078;8.578;2022-08-19T04:54:36;28.00;;;20.05;;
12088;SDS011;6107;49.078;8.578;2022-08-19T04:57:02;25.90;;;21.08;;
12088;SDS011;6107;49.078;8.578;2022-08-19T04:59:30;26.95;;;20.42;;
12088;SDS011;6107;49.078;8.578;2022-08-19T05:01:57;27.55;;;20.30;;
12088;SDS011;6107;49.078;8.578;2022-08-19T05:04:22;25.60;;;19.80;;
12088;SDS011;6107;49.078;8.578;2022-08-19T05:06:48;27.17;;;20.25;;
12088;SDS011;6107;49.078;8.578;2022-08-19T05:09:14;24.33;;;19.65;;
12088;SDS011;6107;49.078;8.578;2022-08-19T05:11:40;27.23;;;20.40;;
12088;SDS011;6107;49.078;8.578;2022-08-19T05:14:06;24.45;;;20.13;;
12088;SDS011;6107;49.078;8.578;2022-08-19T05:16:33;25.67;;;19.77;;
12088;SDS011;6107;49.078;8.578;2022-08-19T05:18:59;24.67;;;19.48;;
12088;SDS011;6107;49.078;8.578;2022-08-19T05:21:43;25.15;;;19.25;;
12088;SDS011;6107;49.078;8.578;2022-08-19T05:24:28;28.08;;;20.73;;
12088;SDS011;6107;49.078;8.578;2022-08-19T05:26:55;25.52;;;19.98;;
12088;SDS011;6107;49.078;8.578;2022-08-19T05:29:21;26.38;;;20.58;;
12088;SDS011;6107;49.078;8.578;2022-08-19T05:31:49;24.95;;;19.45;;
12088;SDS011;6107;49.078;8.578;2022-08-19T05:34:16;25.90;;;20.30;;
12088;SDS011;6107;49.078;8.578;2022-08-19T05:36:46;26.10;;;19.92;;
12088;SDS011;6107;49.078;8.578;2022-08-19T05:39:14;25.70;;;20.05;;
12088;SDS011;6107;49.078;8.578;2022-08-19T05:41:43;26.30;;;19.58;;
12088;SDS011;6107;49.078;8.578;2022-08-19T05:44:40;28.73;;;21.02;;
12088;SDS011;6107;49.078;8.578;2022-08-19T05:47:10;26.48;;;20.17;;
12088;SDS011;6107;49.078;8.578;2022-08-19T05:49:37;27.13;;;19.83;;
12088;SDS011;6107;49.078;8.578;2022-08-19T05:52:04;24.88;;;19.05;;
12088;SDS011;6107;49.078;8.578;2022-08-19T05:54:31;25.13;;;19.30;;
12088;SDS011;6107;49.078;8.578;2022-08-19T05:56:56;23.77;;;19.10;;
12088;SDS011;6107;49.078;8.578;2022-08-19T05:59:22;23.92;;;19.30;;
12088;SDS011;6107;49.078;8.578;2022-08-19T06:01:49;22.25;;;18.42;;
12088;SDS011;6107;49.078;8.578;2022-08-19T06:04:17;22.83;;;18.98;;
12088;SDS011;6107;49.078;8.578;2022-08-19T06:06:48;24.25;;;18.60;;
12088;SDS011;6107;49.078;8.578;2022-08-19T06:09:16;24.77;;;19.17;;
12088;SDS011;6107;49.078;8.578;2022-08-19T06:11:50;23.67;;;18.83;;
12088;SDS011;6107;49.078;8.578;2022-08-19T06:14:19;25.70;;;18.40;;
12088;SDS011;6107;49.078;8.578;2022-08-19T06:16:47;22.73;;;18.77;;
12088;SDS011;6107;49.078;8.578;2022-08-19T06:19:14;23.42;;;17.98;;
12088;SDS011;6107;49.078;8.578;2022-08-19T06:21:42;24.25;;;18.73;;
12088;SDS011;6107;49.078;8.578;2022-08-19T06:24:10;21.25;;;17.58;;
12088;SDS011;6107;49.078;8.578;2022-08-19T06:26:39;24.85;;;18.85;;
12088;SDS011;6107;49.078;8.578;2022-08-19T06:29:07;25.92;;;17.75;;
12088;SDS011;6107;49.078;8.578;2022-08-19T06:31:35;21.98;;;17.95;;
12088;SDS011;6107;49.078;8.578;2022-08-19T06:34:02;24.10;;;17.45;;
12088;SDS011;6107;49.078;8.578;2022-08-19T06:36:33;26.58;;;18.55;;
12088;SDS011;6107;49.078;8.578;2022-08-19T06:39:05;20.52;;;18.20;;
12088;SDS011;6107;49.078;8.578;2022-08-19T06:41:40;22.70;;;17.13;;
12088;SDS011;6107;49.078;8.578;2022-08-19T06:44:07;23.88;;;18.10;;
12088;SDS011;6107;49.078;8.578;2022-08-19T06:46:33;21.00;;;17.13;;
12088;SDS011;6107;49.078;8.578;2022-08-19T06:49:00;20.33;;;17.00;;
12088;SDS011;6107;49.078;8.578;2022-08-19T06:51:25;21.70;;;17.65;;
12088;SDS011;6107;49.078;8.578;2022-08-19T06:53:52;22.58;;;17.98;;
12088;SDS011;6107;49.078;8.578;2022-08-19T06:56:21;21.30;;;17.83;;
12088;SDS011;6107;49.078;8.578;2022-08-19T06:59:00;23.92;;;17.52;;
12088;SDS011;6107;49.078;8.578;2022-08-19T07:01:46;23.13;;;17.92;;
12088;SDS011;6107;49.078;8.578;2022-08-19T07:04:15;20.52;;;17.35;;
12088;SDS011;6107;49.078;8.578;2022-08-19T07:06:43;21.95;;;16.45;;
12088;SDS011;6107;49.078;8.578;2022-08-19T07:09:10;20.42;;;16.20;;
12088;SDS011;6107;49.078;8.578;2022-08-19T07:11:37;19.63;;;17.23;;
12088;SDS011;6107;49.078;8.578;2022-08-19T07:14:03;19.77;;;16.30;;
12088;SDS011;6107;49.078;8.578;2022-08-19T07:16:29;21.65;;;17.40;;
12088;SDS011;6107;49.078;8.578;2022-08-19T07:18:55;24.73;;;17.75;;
12088;SDS011;6107;49.078;8.578;2022-08-19T07:21:23;22.67;;;17.20;;
12088;SDS011;6107;49.078;8.578;2022-08-19T07:23:53;23.02;;;17.77;;
12088;SDS011;6107;49.078;8.578;2022-08-19T07:26:28;21.02;;;16.85;;
12088;SDS011;6107;49.078;8.578;2022-08-19T07:28:56;23.48;;;16.95;;
12088;SDS011;6107;49.078;8.578;2022-08-19T07:31:23;21.20;;;16.45;;
12088;SDS011;6107;49.078;8.578;2022-08-19T07:33:50;20.75;;;16.33;;
12088;SDS011;6107;49.078;8.578;2022-08-19T07:36:19;19.55;;;16.33;;
12088;SDS011;6107;49.078;8.578;2022-08-19T07:38:47;24.50;;;16.10;;
12088;SDS011;6107;49.078;8.578;2022-08-19T07:41:15;18.70;;;16.08;;
12088;SDS011;6107;49.078;8.578;2022-08-19T07:43:44;20.75;;;15.40;;
12088;SDS011;6107;49.078;8.578;2022-08-19T07:46:11;17.92;;;14.88;;
12088;SDS011;6107;49.078;8.578;2022-08-19T07:48:38;20.02;;;16.20;;
12088;SDS011;6107;49.078;8.578;2022-08-19T07:51:05;18.48;;;15.02;;
12088;SDS011;6107;49.078;8.578;2022-08-19T07:53:33;18.52;;;14.75;;
12088;SDS011;6107;49.078;8.578;2022-08-19T07:56:00;17.88;;;14.27;;
12088;SDS011;6107;49.078;8.578;2022-08-19T07:58:33;20.10;;;14.05;;
12088;SDS011;6107;49.078;8.578;2022-08-19T08:01:02;15.93;;;13.50;;
12088;SDS011;6107;49.078;8.578;2022-08-19T08:03:29;15.93;;;13.77;;
12088;SDS011;6107;49.078;8.578;2022-08-19T08:06:13;17.30;;;14.23;;
12088;SDS011;6107;49.078;8.578;2022-08-19T08:08:59;16.13;;;12.32;;
12088;SDS011;6107;49.078;8.578;2022-08-19T08:11:42;15.88;;;12.55;;
12088;SDS011;6107;49.078;8.578;2022-08-19T08:14:14;16.65;;;13.23;;
12088;SDS011;6107;49.078;8.578;2022-08-19T08:16:47;16.60;;;12.52;;
12088;SDS011;6107;49.078;8.578;2022-08-19T08:19:15;15.40;;;13.25;;
12088;SDS011;6107;49.078;8.578;2022-08-19T08:21:41;16.02;;;13.18;;
12088;SDS011;6107;49.078;8.578;2022-08-19T08:24:07;13.23;;;11.77;;
12088;SDS011;6107;49.078;8.578;2022-08-19T08:26:33;15.02;;;13.38;;
12088;SDS011;6107;49.078;8.578;2022-08-19T08:28:59;15.57;;;12.75;;
12088;SDS011;6107;49.078;8.578;2022-08-19T08:31:24;14.80;;;13.02;;
12088;SDS011;6107;49.078;8.578;2022-08-19T08:33:50;14.90;;;12.32;;
12088;SDS011;6107;49.078;8.578;2022-08-19T08:36:16;17.60;;;12.68;;
12088;SDS011;6107;49.078;8.578;2022-08-19T08:38:42;14.05;;;12.32;;
12088;SDS011;6107;49.078;8.578;2022-08-19T08:41:16;14.68;;;11.32;;
12088;SDS011;6107;49.078;8.578;2022-08-19T08:43:56;17.33;;;12.00;;
12088;SDS011;6107;49.078;8.578;2022-08-19T08:46:27;16.40;;;11.77;;
12088;SDS011;6107;49.078;8.578;2022-08-19T08:49:20;13.57;;;11.52;;
12088;SDS011;6107;49.078;8.578;2022-08-19T08:51:59;15.50;;;11.23;;
12088;SDS011;6107;49.078;8.578;2022-08-19T08:54:32;14.82;;;10.80;;
12088;SDS011;6107;49.078;8.578;2022-08-19T08:57:11;11.60;;;10.40;;
12088;SDS011;6107;49.078;8.578;2022-08-19T08:59:40;11.52;;;9.95;;
12088;SDS011;6107;49.078;8.578;2022-08-19T09:02:08;13.18;;;10.60;;
12088;SDS011;6107;49.078;8.578;2022-08-19T09:04:35;12.38;;;9.18;;
12088;SDS011;6107;49.078;8.578;2022-08-19T09:10:02;12.20;;;8.65;;
12088;SDS011;6107;49.078;8.578;2022-08-19T09:15:13;12.65;;;7.93;;
12088;SDS011;6107;49.078;8.578;2022-08-19T09:17:41;13.00;;;9.35;;
12088;SDS011;6107;49.078;8.578;2022-08-19T09:22:36;12.63;;;8.65;;
12088;SDS011;6107;49.078;8.578;2022-08-19T09:25:03;9.75;;;7.05;;
12088;SDS011;6107;49.078;8.578;2022-08-19T09:27:29;10.75;;;7.75;;
12088;SDS011;6107;49.078;8.578;2022-08-19T09:29:55;10.05;;;7.45;;
12088;SDS011;6107;49.078;8.578;2022-08-19T09:32:21;10.27;;;6.90;;
12088;SDS011;6107;49.078;8.578;2022-08-19T09:34:48;8.43;;;7.50;;
12088;SDS011;6107;49.078;8.578;2022-08-19T09:37:13;10.25;;;7.28;;
12088;SDS011;6107;49.078;8.578;2022-08-19T09:39:39;8.70;;;6.82;;
12088;SDS011;6107;49.078;8.578;2022-08-19T09:42:06;8.25;;;6.93;;
12088;SDS011;6107;49.078;8.578;2022-08-19T09:44:36;8.88;;;6.90;;
12088;SDS011;6107;49.078;8.578;2022-08-19T09:47:03;10.45;;;7.28;;
12088;SDS011;6107;49.078;8.578;2022-08-19T09:49:29;9.63;;;7.05;;
12088;SDS011;6107;49.078;8.578;2022-08-19T09:51:55;9.93;;;8.02;;
12088;SDS011;6107;49.078;8.578;2022-08-19T09:54:22;8.50;;;6.60;;
12088;SDS011;6107;49.078;8.578;2022-08-19T09:56:48;8.15;;;6.13;;
12088;SDS011;6107;49.078;8.578;2022-08-19T09:59:14;10.02;;;7.45;;
12088;SDS011;6107;49.078;8.578;2022-08-19T10:01:40;7.88;;;6.57;;
12088;SDS011;6107;49.078;8.578;2022-08-19T10:04:05;8.98;;;7.20;;
12088;SDS011;6107;49.078;8.578;2022-08-19T10:06:34;6.80;;;6.13;;
12088;SDS011;6107;49.078;8.578;2022-08-19T10:09:05;7.30;;;6.07;;
12088;SDS011;6107;49.078;8.578;2022-08-19T10:11:32;7.95;;;6.13;;
12088;SDS011;6107;49.078;8.578;2022-08-19T10:14:00;7.93;;;6.93;;
12088;SDS011;6107;49.078;8.578;2022-08-19T10:16:26;9.75;;;7.22;;
12088;SDS011;6107;49.078;8.578;2022-08-19T10:18:53;7.30;;;6.10;;
12088;SDS011;6107;49.078;8.578;2022-08-19T10:21:21;10.18;;;7.45;;
12088;SDS011;6107;49.078;8.578;2022-08-19T10:23:49;6.82;;;6.13;;
12088;SDS011;6107;49.078;8.578;2022-08-19T10:26:18;9.05;;;8.15;;
12088;SDS011;6107;49.078;8.578;2022-08-19T10:28:45;9.82;;;8.05;;
12088;SDS011;6107;49.078;8.578;2022-08-19T10:31:18;8.05;;;7.15;;
12088;SDS011;6107;49.078;8.578;2022-08-19T10:33:46;9.13;;;8.10;;
12088;SDS011;6107;49.078;8.578;2022-08-19T10:36:17;8.40;;;7.40;;
12088;SDS011;6107;49.078;8.578;2022-08-19T10:38:48;8.95;;;7.32;;
12088;SDS011;6107;49.078;8.578;2022-08-19T10:41:17;8.82;;;7.40;;
12088;SDS011;6107;49.078;8.578;2022-08-19T10:43:49;7.93;;;7.13;;
12088;SDS011;6107;49.078;8.578;2022-08-19T10:46:17;8.43;;;7.57;;
12088;SDS011;6107;49.078;8.578;2022-08-19T10:48:43;9.80;;;7.32;;
12088;SDS011;6107;49.078;8.578;2022-08-19T10:51:09;10.35;;;8.63;;
12088;SDS011;6107;49.078;8.578;2022-08-19T10:53:54;8.70;;;7.55;;
12088;SDS011;6107;49.078;8.578;2022-08-19T10:56:20;8.77;;;7.22;;
12088;SDS011;6107;49.078;8.578;2022-08-19T10:59:05;7.70;;;6.88;;
12088;SDS011;6107;49.078;8.578;2022-08-19T11:01:32;9.02;;;7.05;;
12088;SDS011;6107;49.078;8.578;2022-08-19T11:03:59;8.60;;;7.22;;
12088;SDS011;6107;49.078;8.578;2022-08-19T11:06:26;9.93;;;8.25;;
12088;SDS011;6107;49.078;8.578;2022-08-19T11:08:53;9.13;;;8.20;;
12088;SDS011;6107;49.078;8.578;2022-08-19T11:11:19;10.70;;;8.30;;
12088;SDS011;6107;49.078;8.578;2022-08-19T11:13:45;10.57;;;7.03;;
12088;SDS011;6107;49.078;8.578;2022-08-19T11:16:15;8.07;;;7.38;;
12088;SDS011;6107;49.078;8.578;2022-08-19T11:18:43;8.85;;;7.30;;
12088;SDS011;6107;49.078;8.578;2022-08-19T11:21:17;8.80;;;7.90;;
12088;SDS011;6107;49.078;8.578;2022-08-19T11:23:46;8.63;;;7.30;;
12088;SDS011;6107;49.078;8.578;2022-08-19T11:26:14;9.60;;;8.55;;
12088;SDS011;6107;49.078;8.578;2022-08-19T11:28:41;10.00;;;8.07;;
12088;SDS011;6107;49.078;8.578;2022-08-19T11:31:11;8.38;;;7.57;;
12088;SDS011;6107;49.078;8.578;2022-08-19T11:33:39;9.27;;;7.65;;
12088;SDS011;6107;49.078;8.578;2022-08-19T11:36:05;8.43;;;7.63;;
12088;SDS011;6107;49.078;8.578;2022-08-19T11:38:31;7.93;;;7.13;;
12088;SDS011;6107;49.078;8.578;2022-08-19T11:40:57;11.95;;;6.90;;
12088;SDS011;6107;49.078;8.578;2022-08-19T11:43:25;7.50;;;6.80;;
12088;SDS011;6107;49.078;8.578;2022-08-19T11:45:52;7.55;;;6.85;;
12088;SDS011;6107;49.078;8.578;2022-08-19T11:48:18;8.02;;;6.78;;
12088;SDS011;6107;49.078;8.578;2022-08-19T11:50:47;7.50;;;6.80;;
12088;SDS011;6107;49.078;8.578;2022-08-19T11:53:13;7.05;;;6.35;;
12088;SDS011;6107;49.078;8.578;2022-08-19T11:55:39;7.22;;;6.32;;
12088;SDS011;6107;49.078;8.578;2022-08-19T11:58:05;7.80;;;7.00;;
12088;SDS011;6107;49.078;8.578;2022-08-19T12:00:32;6.88;;;6.18;;
12088;SDS011;6107;49.078;8.578;2022-08-19T12:03:00;7.78;;;7.07;;
12088;SDS011;6107;49.078;8.578;2022-08-19T12:05:25;7.68;;;6.88;;
12088;SDS011;6107;49.078;8.578;2022-08-19T12:07:51;8.27;;;7.50;;
12088;SDS011;6107;49.078;8.578;2022-08-19T12:10:17;8.93;;;7.55;;
12088;SDS011;6107;49.078;8.578;2022-08-19T12:12:42;7.80;;;7.10;;
12088;SDS011;6107;49.078;8.578;2022-08-19T12:15:10;7.25;;;6.55;;
12088;SDS011;6107;49.078;8.578;2022-08-19T12:17:36;8.05;;;7.20;;
12088;SDS011;6107;49.078;8.578;2022-08-19T12:20:03;8.98;;;8.05;;
12088;SDS011;6107;49.078;8.578;2022-08-19T12:22:29;8.18;;;7.47;;
12088;SDS011;6107;49.078;8.578;2022-08-19T12:24:55;9.38;;;7.72;;
12088;SDS011;6107;49.078;8.578;2022-08-19T12:27:20;9.95;;;8.45;;
12088;SDS011;6107;49.078;8.578;2022-08-19T12:29:46;9.43;;;7.85;;
12088;SDS011;6107;49.078;8.578;2022-08-19T12:32:12;8.38;;;7.60;;
12088;SDS011;6107;49.078;8.578;2022-08-19T12:34:38;9.38;;;7.80;;
12088;SDS011;6107;49.078;8.578;2022-08-19T12:37:04;8.13;;;7.43;;
12088;SDS011;6107;49.078;8.578;2022-08-19T12:39:34;9.73;;;8.50;;
12088;SDS011;6107;49.078;8.578;2022-08-19T12:42:01;8.52;;;7.70;;
12088;SDS011;6107;49.078;8.578;2022-08-19T12:44:27;8.90;;;8.10;;
12088;SDS011;6107;49.078;8.578;2022-08-19T12:46:52;8.93;;;8.05;;
12088;SDS011;6107;49.078;8.578;2022-08-19T12:49:17;8.23;;;7.53;;
12088;SDS011;6107;49.078;8.578;2022-08-19T12:51:43;8.45;;;7.65;;
12088;SDS011;6107;49.078;8.578;2022-08-19T12:54:08;8.38;;;7.57;;
12088;SDS011;6107;49.078;8.578;2022-08-19T12:56:34;8.68;;;7.82;;
12088;SDS011;6107;49.078;8.578;2022-08-19T12:59:02;8.38;;;7.45;;
12088;SDS011;6107;49.078;8.578;2022-08-19T13:01:28;8.25;;;7.55;;
12088;SDS011;6107;49.078;8.578;2022-08-19T13:03:57;1389.57;;;152.15;;
12088;SDS011;6107;49.078;8.578;2022-08-19T13:06:23;1999.90;;;999.90;;
12088;SDS011;6107;49.078;8.578;2022-08-19T13:08:49;1999.90;;;999.90;;
12088;SDS011;6107;49.078;8.578;2022-08-19T13:11:16;1999.90;;;999.90;;
12088;SDS011;6107;49.078;8.578;2022-08-19T13:13:45;1999.90;;;999.90;;
12088;SDS011;6107;49.078;8.578;2022-08-19T13:16:13;1999.90;;;999.90;;
12088;SDS011;6107;49.078;8.578;2022-08-19T13:18:39;1999.90;;;999.90;;
12088;SDS011;6107;49.078;8.578;2022-08-19T13:21:06;1999.90;;;999.90;;
12088;SDS011;6107;49.078;8.578;2022-08-19T13:23:34;1999.90;;;999.90;;
12088;SDS011;6107;49.078;8.578;2022-08-19T13:26:05;1999.90;;;999.90;;
12088;SDS011;6107;49.078;8.578;2022-08-19T13:28:32;1999.90;;;999.90;;
12088;SDS011;6107;49.078;8.578;2022-08-19T13:31:18;1999.90;;;999.90;;
12088;SDS011;6107;49.078;8.578;2022-08-19T13:34:04;1999.90;;;999.90;;
12088;SDS011;6107;49.078;8.578;2022-08-19T13:36:31;1999.90;;;999.90;;
12088;SDS011;6107;49.078;8.578;2022-08-19T13:39:00;1999.90;;;999.90;;
12088;SDS011;6107;49.078;8.578;2022-08-19T13:41:26;1999.90;;;999.90;;
12088;SDS011;6107;49.078;8.578;2022-08-19T13:43:52;1999.90;;;999.90;;
12088;SDS011;6107;49.078;8.578;2022-08-19T13:46:17;1999.90;;;999.90;;
12088;SDS011;6107;49.078;8.578;2022-08-19T13:48:44;1999.90;;;999.90;;
12088;SDS011;6107;49.078;8.578;2022-08-19T13:51:10;1999.90;;;999.90;;
12088;SDS011;6107;49.078;8.578;2022-08-19T13:53:37;1999.90;;;999.90;;
12088;SDS011;6107;49.078;8.578;2022-08-19T13:56:07;1999.90;;;999.90;;
12088;SDS011;6107;49.078;8.578;2022-08-19T13:58:34;1999.90;;;999.90;;
12088;SDS011;6107;49.078;8.578;2022-08-19T14:01:01;1999.90;;;999.90;;
12088;SDS011;6107;49.078;8.578;2022-08-19T14:03:27;1999.90;;;999.90;;
12088;SDS011;6107;49.078;8.578;2022-08-19T14:05:53;1999.90;;;999.90;;
12088;SDS011;6107;49.078;8.578;2022-08-19T14:08:19;56.25;;;6.35;;
12088;SDS011;6107;49.078;8.578;2022-08-19T14:10:44;1999.90;;;999.90;;
12088;SDS011;6107;49.078;8.578;2022-08-19T14:13:12;1999.90;;;999.90;;
12088;SDS011;6107;49.078;8.578;2022-08-19T14:15:40;1999.90;;;999.90;;
12088;SDS011;6107;49.078;8.578;2022-08-19T14:18:06;1999.90;;;999.90;;
12088;SDS011;6107;49.078;8.578;2022-08-19T14:20:34;1999.90;;;999.90;;
12088;SDS011;6107;49.078;8.578;2022-08-19T14:23:00;1999.90;;;999.90;;
12088;SDS011;6107;49.078;8.578;2022-08-19T14:25:27;1999.90;;;999.90;;
12088;SDS011;6107;49.078;8.578;2022-08-19T14:27:54;1999.90;;;999.90;;
12088;SDS011;6107;49.078;8.578;2022-08-19T14:30:22;1999.90;;;999.90;;
12088;SDS011;6107;49.078;8.578;2022-08-19T14:32:51;1999.90;;;999.90;;
12088;SDS011;6107;49.078;8.578;2022-08-19T14:35:17;1999.90;;;999.90;;
12088;SDS011;6107;49.078;8.578;2022-08-19T14:37:43;1999.90;;;999.90;;
12088;SDS011;6107;49.078;8.578;2022-08-19T14:40:10;1999.90;;;999.90;;
12088;SDS011;6107;49.078;8.578;2022-08-19T14:42:37;1999.90;;;999.90;;
12088;SDS011;6107;49.078;8.578;2022-08-19T14:45:03;1999.90;;;999.90;;
12088;SDS011;6107;49.078;8.578;2022-08-19T14:47:30;1999.90;;;999.90;;
12088;SDS011;6107;49.078;8.578;2022-08-19T14:49:55;1999.90;;;999.90;;